sensor_id;sensor_type;location;lat;lon;timestamp;temperature;humidity
27671;DHT22;15077;49.704;9.908;2022-12-07T00:03:54;6.50;72.30
27671;DHT22;15077;49.704;9.908;2022-12-07T00:06:29;6.50;72.30
27671;DHT22;15077;49.704;9.908;2022-12-07T00:08:55;6.40;72.20
27671;DHT22;15077;49.704;9.908;2022-12-07T00:11:23;6.40;72.20
27671;DHT22;15077;49.704;9.908;2022-12-07T00:13:55;6.40;72.10
27671;DHT22;15077;49.704;9.908;2022-12-07T00:16:25;6.40;72.10
27671;DHT22;15077;49.704;9.908;2022-12-07T00:18:56;6.30;72.20
27671;DHT22;15077;49.704;9.908;2022-12-07T00:21:31;6.30;72.20
27671;DHT22;15077;49.704;9.908;2022-12-07T00:23:59;6.30;72.20
27671;DHT22;15077;49.704;9.908;2022-12-07T00:26:33;6.30;72.30
27671;DHT22;15077;49.704;9.908;2022-12-07T00:29:05;6.30;72.30
27671;DHT22;15077;49.704;9.908;2022-12-07T00:31:44;6.20;72.20
27671;DHT22;15077;49.704;9.908;2022-12-07T00:34:19;6.20;72.30
27671;DHT22;15077;49.704;9.908;2022-12-07T00:36:46;6.20;72.40
27671;DHT22;15077;49.704;9.908;2022-12-07T00:39:13;6.20;72.40
27671;DHT22;15077;49.704;9.908;2022-12-07T00:41:39;6.20;72.50
27671;DHT22;15077;49.704;9.908;2022-12-07T00:44:05;6.10;72.60
27671;DHT22;15077;49.704;9.908;2022-12-07T00:46:31;6.10;72.60
27671;DHT22;15077;49.704;9.908;2022-12-07T00:48:57;6.10;72.60
27671;DHT22;15077;49.704;9.908;2022-12-07T00:51:25;6.10;72.60
27671;DHT22;15077;49.704;9.908;2022-12-07T00:53:51;6.10;72.70
27671;DHT22;15077;49.704;9.908;2022-12-07T00:56:22;6.10;72.70
27671;DHT22;15077;49.704;9.908;2022-12-07T00:59:01;6.10;72.70
27671;DHT22;15077;49.704;9.908;2022-12-07T01:01:34;6.10;72.70
27671;DHT22;15077;49.704;9.908;2022-12-07T01:04:02;6.10;72.60
27671;DHT22;15077;49.704;9.908;2022-12-07T01:06:29;6.10;72.60
27671;DHT22;15077;49.704;9.908;2022-12-07T01:09:01;6.10;72.60
27671;DHT22;15077;49.704;9.908;2022-12-07T01:11:30;6.10;72.50
27671;DHT22;15077;49.704;9.908;2022-12-07T01:13:57;6.10;72.50
27671;DHT22;15077;49.704;9.908;2022-12-07T01:16:26;6.10;72.50
27671;DHT22;15077;49.704;9.908;2022-12-07T01:18:56;6.10;72.50
27671;DHT22;15077;49.704;9.908;2022-12-07T01:21:26;6.10;72.50
27671;DHT22;15077;49.704;9.908;2022-12-07T01:23:54;6.10;72.40
27671;DHT22;15077;49.704;9.908;2022-12-07T01:26:24;6.10;72.40
27671;DHT22;15077;49.704;9.908;2022-12-07T01:28:51;6.10;72.40
27671;DHT22;15077;49.704;9.908;2022-12-07T01:31:24;6.10;72.50
27671;DHT22;15077;49.704;9.908;2022-12-07T01:33:53;6.00;72.50
27671;DHT22;15077;49.704;9.908;2022-12-07T01:36:22;6.00;72.50
27671;DHT22;15077;49.704;9.908;2022-12-07T01:38:51;6.00;72.50
27671;DHT22;15077;49.704;9.908;2022-12-07T01:41:23;6.00;72.50
27671;DHT22;15077;49.704;9.908;2022-12-07T01:44:27;6.00;72.50
27671;DHT22;15077;49.704;9.908;2022-12-07T01:47:03;5.90;72.40
27671;DHT22;15077;49.704;9.908;2022-12-07T01:49:42;5.90;72.40
27671;DHT22;15077;49.704;9.908;2022-12-07T01:52:15;5.90;72.40
27671;DHT22;15077;49.704;9.908;2022-12-07T01:54:48;5.90;72.40
27671;DHT22;15077;49.704;9.908;2022-12-07T01:57:17;5.90;72.40
27671;DHT22;15077;49.704;9.908;2022-12-07T01:59:45;5.90;72.50
27671;DHT22;15077;49.704;9.908;2022-12-07T02:02:20;5.90;73.10
27671;DHT22;15077;49.704;9.908;2022-12-07T02:04:53;5.90;72.60
27671;DHT22;15077;49.704;9.908;2022-12-07T02:07:21;5.90;72.60
27671;DHT22;15077;49.704;9.908;2022-12-07T02:09:48;5.90;72.60
27671;DHT22;15077;49.704;9.908;2022-12-07T02:12:14;5.80;72.60
27671;DHT22;15077;49.704;9.908;2022-12-07T02:14:40;5.80;72.60
27671;DHT22;15077;49.704;9.908;2022-12-07T02:17:28;5.80;72.60
27671;DHT22;15077;49.704;9.908;2022-12-07T02:20:50;5.80;72.60
27671;DHT22;15077;49.704;9.908;2022-12-07T02:23:57;5.80;72.60
27671;DHT22;15077;49.704;9.908;2022-12-07T02:27:02;5.80;72.60
27671;DHT22;15077;49.704;9.908;2022-12-07T02:29:40;5.80;72.60
27671;DHT22;15077;49.704;9.908;2022-12-07T02:32:16;5.80;72.60
27671;DHT22;15077;49.704;9.908;2022-12-07T02:34:51;5.80;72.60
27671;DHT22;15077;49.704;9.908;2022-12-07T02:37:35;5.80;72.70
27671;DHT22;15077;49.704;9.908;2022-12-07T02:40:17;5.80;72.70
27671;DHT22;15077;49.704;9.908;2022-12-07T02:42:51;5.80;72.80
27671;DHT22;15077;49.704;9.908;2022-12-07T02:45:24;5.80;72.70
27671;DHT22;15077;49.704;9.908;2022-12-07T02:47:56;5.80;72.80
27671;DHT22;15077;49.704;9.908;2022-12-07T02:50:25;5.80;72.70
27671;DHT22;15077;49.704;9.908;2022-12-07T02:52:52;5.80;72.80
27671;DHT22;15077;49.704;9.908;2022-12-07T02:55:20;5.80;72.70
27671;DHT22;15077;49.704;9.908;2022-12-07T03:04:22;5.80;72.70
27671;DHT22;15077;49.704;9.908;2022-12-07T03:16:17;5.80;72.60
27671;DHT22;15077;49.704;9.908;2022-12-07T03:18:59;5.80;72.60
27671;DHT22;15077;49.704;9.908;2022-12-07T03:21:32;5.80;72.60
27671;DHT22;15077;49.704;9.908;2022-12-07T03:24:09;5.80;72.60
27671;DHT22;15077;49.704;9.908;2022-12-07T03:26:44;5.80;72.40
27671;DHT22;15077;49.704;9.908;2022-12-07T03:29:27;5.80;72.40
27671;DHT22;15077;49.704;9.908;2022-12-07T03:32:04;5.80;72.50
27671;DHT22;15077;49.704;9.908;2022-12-07T03:34:41;5.70;72.50
27671;DHT22;15077;49.704;9.908;2022-12-07T03:37:21;5.70;72.50
27671;DHT22;15077;49.704;9.908;2022-12-07T03:42:51;5.70;72.50
27671;DHT22;15077;49.704;9.908;2022-12-07T03:45:23;5.70;72.50
27671;DHT22;15077;49.704;9.908;2022-12-07T03:48:28;5.70;72.50
27671;DHT22;15077;49.704;9.908;2022-12-07T03:53:41;5.70;72.50
27671;DHT22;15077;49.704;9.908;2022-12-07T03:56:12;5.70;72.60
27671;DHT22;15077;49.704;9.908;2022-12-07T03:58:39;5.70;72.50
27671;DHT22;15077;49.704;9.908;2022-12-07T04:01:07;5.70;72.50
27671;DHT22;15077;49.704;9.908;2022-12-07T04:03:32;5.70;72.50
27671;DHT22;15077;49.704;9.908;2022-12-07T04:05:59;5.70;72.50
27671;DHT22;15077;49.704;9.908;2022-12-07T04:08:25;5.70;72.50
27671;DHT22;15077;49.704;9.908;2022-12-07T04:10:51;5.70;72.50
27671;DHT22;15077;49.704;9.908;2022-12-07T04:13:17;5.70;72.50
27671;DHT22;15077;49.704;9.908;2022-12-07T04:15:42;5.70;72.50
27671;DHT22;15077;49.704;9.908;2022-12-07T04:18:08;5.70;72.50
27671;DHT22;15077;49.704;9.908;2022-12-07T04:20:34;5.70;72.50
27671;DHT22;15077;49.704;9.908;2022-12-07T04:22:59;5.70;72.50
27671;DHT22;15077;49.704;9.908;2022-12-07T04:25:25;5.70;72.50
27671;DHT22;15077;49.704;9.908;2022-12-07T04:27:51;5.70;72.50
27671;DHT22;15077;49.704;9.908;2022-12-07T04:30:18;5.70;72.50
27671;DHT22;15077;49.704;9.908;2022-12-07T04:32:44;5.70;72.50
27671;DHT22;15077;49.704;9.908;2022-12-07T04:35:10;5.70;72.50
27671;DHT22;15077;49.704;9.908;2022-12-07T04:37:35;5.70;72.40
27671;DHT22;15077;49.704;9.908;2022-12-07T04:40:01;5.70;72.40
27671;DHT22;15077;49.704;9.908;2022-12-07T04:42:27;5.60;72.40
27671;DHT22;15077;49.704;9.908;2022-12-07T04:44:53;5.60;72.40
27671;DHT22;15077;49.704;9.908;2022-12-07T04:47:19;5.60;72.40
27671;DHT22;15077;49.704;9.908;2022-12-07T04:49:46;5.60;72.40
27671;DHT22;15077;49.704;9.908;2022-12-07T04:52:11;5.60;72.40
27671;DHT22;15077;49.704;9.908;2022-12-07T04:54:37;5.60;72.40
27671;DHT22;15077;49.704;9.908;2022-12-07T04:57:03;5.60;72.40
27671;DHT22;15077;49.704;9.908;2022-12-07T04:59:29;5.60;72.40
27671;DHT22;15077;49.704;9.908;2022-12-07T05:01:54;5.60;72.40
27671;DHT22;15077;49.704;9.908;2022-12-07T05:04:20;5.60;72.40
27671;DHT22;15077;49.704;9.908;2022-12-07T05:06:46;5.60;72.40
27671;DHT22;15077;49.704;9.908;2022-12-07T05:09:11;5.60;72.50
27671;DHT22;15077;49.704;9.908;2022-12-07T05:11:37;5.60;72.50
27671;DHT22;15077;49.704;9.908;2022-12-07T05:14:06;5.60;72.50
27671;DHT22;15077;49.704;9.908;2022-12-07T05:16:34;5.50;72.50
27671;DHT22;15077;49.704;9.908;2022-12-07T05:19:00;5.50;72.50
27671;DHT22;15077;49.704;9.908;2022-12-07T05:21:25;5.50;72.60
27671;DHT22;15077;49.704;9.908;2022-12-07T05:23:51;5.50;72.60
27671;DHT22;15077;49.704;9.908;2022-12-07T05:26:17;5.50;72.70
27671;DHT22;15077;49.704;9.908;2022-12-07T05:28:43;5.50;72.70
27671;DHT22;15077;49.704;9.908;2022-12-07T05:31:09;5.50;72.70
27671;DHT22;15077;49.704;9.908;2022-12-07T05:33:35;5.50;72.70
27671;DHT22;15077;49.704;9.908;2022-12-07T05:36:01;5.50;72.70
27671;DHT22;15077;49.704;9.908;2022-12-07T05:38:32;5.50;72.70
27671;DHT22;15077;49.704;9.908;2022-12-07T05:41:03;5.50;72.70
27671;DHT22;15077;49.704;9.908;2022-12-07T05:43:31;5.60;72.80
27671;DHT22;15077;49.704;9.908;2022-12-07T05:45:57;5.50;72.70
27671;DHT22;15077;49.704;9.908;2022-12-07T05:48:24;5.60;72.80
27671;DHT22;15077;49.704;9.908;2022-12-07T05:50:52;5.60;72.80
27671;DHT22;15077;49.704;9.908;2022-12-07T05:53:17;5.60;72.80
27671;DHT22;15077;49.704;9.908;2022-12-07T05:55:44;5.60;72.80
27671;DHT22;15077;49.704;9.908;2022-12-07T05:58:10;5.50;72.70
27671;DHT22;15077;49.704;9.908;2022-12-07T06:00:55;5.50;73.40
27671;DHT22;15077;49.704;9.908;2022-12-07T06:03:21;5.50;72.80
27671;DHT22;15077;49.704;9.908;2022-12-07T06:05:47;5.50;72.90
27671;DHT22;15077;49.704;9.908;2022-12-07T06:08:13;5.50;73.00
27671;DHT22;15077;49.704;9.908;2022-12-07T06:10:40;5.50;73.00
27671;DHT22;15077;49.704;9.908;2022-12-07T06:13:08;5.50;73.10
27671;DHT22;15077;49.704;9.908;2022-12-07T06:15:37;5.50;73.20
27671;DHT22;15077;49.704;9.908;2022-12-07T06:18:03;5.50;73.20
27671;DHT22;15077;49.704;9.908;2022-12-07T06:20:29;5.40;73.20
27671;DHT22;15077;49.704;9.908;2022-12-07T06:22:54;5.40;73.20
27671;DHT22;15077;49.704;9.908;2022-12-07T06:25:20;5.40;73.20
27671;DHT22;15077;49.704;9.908;2022-12-07T06:27:46;5.40;73.20
27671;DHT22;15077;49.704;9.908;2022-12-07T06:30:12;5.40;73.80
27671;DHT22;15077;49.704;9.908;2022-12-07T06:32:37;5.50;73.30
27671;DHT22;15077;49.704;9.908;2022-12-07T06:35:04;5.40;73.30
27671;DHT22;15077;49.704;9.908;2022-12-07T06:37:30;5.40;73.40
27671;DHT22;15077;49.704;9.908;2022-12-07T06:39:55;5.50;73.50
27671;DHT22;15077;49.704;9.908;2022-12-07T06:42:21;5.40;73.40
27671;DHT22;15077;49.704;9.908;2022-12-07T06:44:47;5.50;73.50
27671;DHT22;15077;49.704;9.908;2022-12-07T06:47:13;5.50;73.50
27671;DHT22;15077;49.704;9.908;2022-12-07T06:49:38;5.50;73.50
27671;DHT22;15077;49.704;9.908;2022-12-07T06:52:04;5.50;73.50
27671;DHT22;15077;49.704;9.908;2022-12-07T06:54:31;5.50;73.60
27671;DHT22;15077;49.704;9.908;2022-12-07T06:56:57;5.50;73.70
27671;DHT22;15077;49.704;9.908;2022-12-07T06:59:22;5.50;73.70
27671;DHT22;15077;49.704;9.908;2022-12-07T07:01:48;5.50;73.70
27671;DHT22;15077;49.704;9.908;2022-12-07T07:04:14;5.50;73.70
27671;DHT22;15077;49.704;9.908;2022-12-07T07:06:40;5.50;74.30
27671;DHT22;15077;49.704;9.908;2022-12-07T07:09:05;5.50;73.80
27671;DHT22;15077;49.704;9.908;2022-12-07T07:11:31;5.50;73.80
27671;DHT22;15077;49.704;9.908;2022-12-07T07:13:57;5.50;73.80
27671;DHT22;15077;49.704;9.908;2022-12-07T07:16:28;5.50;73.80
27671;DHT22;15077;49.704;9.908;2022-12-07T07:18:55;5.50;73.80
27671;DHT22;15077;49.704;9.908;2022-12-07T07:21:22;5.50;73.90
27671;DHT22;15077;49.704;9.908;2022-12-07T07:23:47;5.50;73.80
27671;DHT22;15077;49.704;9.908;2022-12-07T07:26:13;5.60;73.90
27671;DHT22;15077;49.704;9.908;2022-12-07T07:28:39;5.60;73.90
27671;DHT22;15077;49.704;9.908;2022-12-07T07:31:04;5.60;73.90
27671;DHT22;15077;49.704;9.908;2022-12-07T07:33:30;5.60;73.90
27671;DHT22;15077;49.704;9.908;2022-12-07T07:35:56;5.60;73.90
27671;DHT22;15077;49.704;9.908;2022-12-07T07:38:22;5.60;73.90
27671;DHT22;15077;49.704;9.908;2022-12-07T07:40:47;5.70;74.00
27671;DHT22;15077;49.704;9.908;2022-12-07T07:43:13;5.70;73.90
27671;DHT22;15077;49.704;9.908;2022-12-07T07:45:39;5.70;73.90
27671;DHT22;15077;49.704;9.908;2022-12-07T07:48:05;5.70;73.90
27671;DHT22;15077;49.704;9.908;2022-12-07T07:50:31;5.70;73.90
27671;DHT22;15077;49.704;9.908;2022-12-07T07:52:57;5.70;74.00
27671;DHT22;15077;49.704;9.908;2022-12-07T07:55:23;5.70;73.90
27671;DHT22;15077;49.704;9.908;2022-12-07T07:57:49;5.80;74.00
27671;DHT22;15077;49.704;9.908;2022-12-07T08:00:15;5.80;74.00
27671;DHT22;15077;49.704;9.908;2022-12-07T08:02:42;5.80;74.10
27671;DHT22;15077;49.704;9.908;2022-12-07T08:05:10;5.80;74.00
27671;DHT22;15077;49.704;9.908;2022-12-07T08:07:36;5.80;74.00
27671;DHT22;15077;49.704;9.908;2022-12-07T08:10:02;5.80;74.00
27671;DHT22;15077;49.704;9.908;2022-12-07T08:12:29;5.90;74.10
27671;DHT22;15077;49.704;9.908;2022-12-07T08:14:54;5.90;74.10
27671;DHT22;15077;49.704;9.908;2022-12-07T08:17:20;5.90;74.00
27671;DHT22;15077;49.704;9.908;2022-12-07T08:19:46;5.90;74.00
27671;DHT22;15077;49.704;9.908;2022-12-07T08:22:11;5.90;74.10
27671;DHT22;15077;49.704;9.908;2022-12-07T08:24:37;5.90;74.00
27671;DHT22;15077;49.704;9.908;2022-12-07T08:27:03;6.00;74.10
27671;DHT22;15077;49.704;9.908;2022-12-07T08:29:29;6.00;74.10
27671;DHT22;15077;49.704;9.908;2022-12-07T08:31:56;6.00;74.20
27671;DHT22;15077;49.704;9.908;2022-12-07T08:34:21;6.00;74.10
27671;DHT22;15077;49.704;9.908;2022-12-07T08:36:47;6.10;74.10
27671;DHT22;15077;49.704;9.908;2022-12-07T08:39:13;6.10;74.10
27671;DHT22;15077;49.704;9.908;2022-12-07T08:41:39;6.10;74.10
27671;DHT22;15077;49.704;9.908;2022-12-07T08:44:04;6.10;74.10
27671;DHT22;15077;49.704;9.908;2022-12-07T08:46:37;6.10;74.10
27671;DHT22;15077;49.704;9.908;2022-12-07T08:49:20;6.20;74.20
27671;DHT22;15077;49.704;9.908;2022-12-07T08:51:50;6.20;74.20
27671;DHT22;15077;49.704;9.908;2022-12-07T08:54:17;6.20;74.10
27671;DHT22;15077;49.704;9.908;2022-12-07T08:56:45;6.20;74.10
27671;DHT22;15077;49.704;9.908;2022-12-07T08:59:14;6.30;74.00
27671;DHT22;15077;49.704;9.908;2022-12-07T09:01:41;6.30;74.00
27671;DHT22;15077;49.704;9.908;2022-12-07T09:04:07;6.30;74.00
27671;DHT22;15077;49.704;9.908;2022-12-07T09:06:33;6.30;74.00
27671;DHT22;15077;49.704;9.908;2022-12-07T09:09:01;6.30;74.00
27671;DHT22;15077;49.704;9.908;2022-12-07T09:11:27;6.30;73.90
27671;DHT22;15077;49.704;9.908;2022-12-07T09:13:53;6.40;74.00
27671;DHT22;15077;49.704;9.908;2022-12-07T09:16:19;6.40;74.00
27671;DHT22;15077;49.704;9.908;2022-12-07T09:18:45;6.40;74.10
27671;DHT22;15077;49.704;9.908;2022-12-07T09:21:11;6.40;74.10
27671;DHT22;15077;49.704;9.908;2022-12-07T09:23:36;6.40;74.30
27671;DHT22;15077;49.704;9.908;2022-12-07T09:26:04;6.50;74.20
27671;DHT22;15077;49.704;9.908;2022-12-07T09:28:31;6.50;74.20
27671;DHT22;15077;49.704;9.908;2022-12-07T09:30:56;6.50;74.20
27671;DHT22;15077;49.704;9.908;2022-12-07T09:33:24;6.60;74.20
27671;DHT22;15077;49.704;9.908;2022-12-07T09:35:52;6.60;74.20
27671;DHT22;15077;49.704;9.908;2022-12-07T09:38:19;6.60;74.10
27671;DHT22;15077;49.704;9.908;2022-12-07T09:40:47;6.70;74.10
27671;DHT22;15077;49.704;9.908;2022-12-07T09:43:24;6.70;74.10
27671;DHT22;15077;49.704;9.908;2022-12-07T09:45:53;6.70;74.10
27671;DHT22;15077;49.704;9.908;2022-12-07T09:48:35;6.70;74.90
27671;DHT22;15077;49.704;9.908;2022-12-07T09:51:17;6.80;74.30
27671;DHT22;15077;49.704;9.908;2022-12-07T09:53:47;6.80;74.30
27671;DHT22;15077;49.704;9.908;2022-12-07T09:56:15;6.90;74.80
27671;DHT22;15077;49.704;9.908;2022-12-07T09:58:44;6.90;74.20
27671;DHT22;15077;49.704;9.908;2022-12-07T10:01:19;7.00;74.20
27671;DHT22;15077;49.704;9.908;2022-12-07T10:03:52;7.00;74.10
27671;DHT22;15077;49.704;9.908;2022-12-07T10:06:20;7.00;74.10
27671;DHT22;15077;49.704;9.908;2022-12-07T10:08:47;7.00;74.00
27671;DHT22;15077;49.704;9.908;2022-12-07T10:11:13;7.10;74.00
27671;DHT22;15077;49.704;9.908;2022-12-07T10:13:45;7.10;74.00
27671;DHT22;15077;49.704;9.908;2022-12-07T10:18:53;7.20;73.70
27671;DHT22;15077;49.704;9.908;2022-12-07T10:21:25;7.30;73.80
27671;DHT22;15077;49.704;9.908;2022-12-07T10:29:16;7.40;73.90
27671;DHT22;15077;49.704;9.908;2022-12-07T10:34:40;7.60;73.80
27671;DHT22;15077;49.704;9.908;2022-12-07T10:39:48;7.70;74.70
27671;DHT22;15077;49.704;9.908;2022-12-07T10:42:23;7.90;74.40
27671;DHT22;15077;49.704;9.908;2022-12-07T10:51:25;8.20;72.90
27671;DHT22;15077;49.704;9.908;2022-12-07T10:54:26;8.20;72.60
27671;DHT22;15077;49.704;9.908;2022-12-07T10:57:32;8.10;72.30
27671;DHT22;15077;49.704;9.908;2022-12-07T11:00:08;8.10;72.40
27671;DHT22;15077;49.704;9.908;2022-12-07T11:08:52;8.00;72.10
27671;DHT22;15077;49.704;9.908;2022-12-07T11:11:38;8.00;72.30
27671;DHT22;15077;49.704;9.908;2022-12-07T11:14:28;8.00;72.10
27671;DHT22;15077;49.704;9.908;2022-12-07T11:17:30;8.00;72.20
27671;DHT22;15077;49.704;9.908;2022-12-07T11:22:50;8.00;72.10
27671;DHT22;15077;49.704;9.908;2022-12-07T11:28:23;7.90;72.10
27671;DHT22;15077;49.704;9.908;2022-12-07T11:31:09;7.90;71.70
27671;DHT22;15077;49.704;9.908;2022-12-07T11:33:47;7.90;72.00
27671;DHT22;15077;49.704;9.908;2022-12-07T11:39:28;7.90;71.90
27671;DHT22;15077;49.704;9.908;2022-12-07T11:42:08;7.90;71.90
27671;DHT22;15077;49.704;9.908;2022-12-07T11:45:31;8.00;71.90
27671;DHT22;15077;49.704;9.908;2022-12-07T11:47:58;8.00;71.90
27671;DHT22;15077;49.704;9.908;2022-12-07T11:53:01;8.00;71.90
27671;DHT22;15077;49.704;9.908;2022-12-07T12:03:50;8.00;71.70
27671;DHT22;15077;49.704;9.908;2022-12-07T12:06:23;8.00;71.70
27671;DHT22;15077;49.704;9.908;2022-12-07T12:08:56;7.90;71.80
27671;DHT22;15077;49.704;9.908;2022-12-07T12:20:43;8.00;71.90
27671;DHT22;15077;49.704;9.908;2022-12-07T12:23:17;8.00;72.10
27671;DHT22;15077;49.704;9.908;2022-12-07T12:25:49;8.10;72.60
27671;DHT22;15077;49.704;9.908;2022-12-07T12:28:27;8.20;72.40
27671;DHT22;15077;49.704;9.908;2022-12-07T12:33:35;8.40;72.40
27671;DHT22;15077;49.704;9.908;2022-12-07T12:39:11;8.50;72.20
27671;DHT22;15077;49.704;9.908;2022-12-07T12:47:37;8.60;71.20
27671;DHT22;15077;49.704;9.908;2022-12-07T12:50:21;8.70;70.50
27671;DHT22;15077;49.704;9.908;2022-12-07T12:53:22;8.60;70.80
27671;DHT22;15077;49.704;9.908;2022-12-07T12:58:47;8.60;70.60
27671;DHT22;15077;49.704;9.908;2022-12-07T13:01:41;8.60;70.80
27671;DHT22;15077;49.704;9.908;2022-12-07T13:04:18;8.50;70.60
27671;DHT22;15077;49.704;9.908;2022-12-07T13:06:49;8.50;70.50
27671;DHT22;15077;49.704;9.908;2022-12-07T13:09:25;8.40;70.50
27671;DHT22;15077;49.704;9.908;2022-12-07T13:12:14;8.40;70.30
27671;DHT22;15077;49.704;9.908;2022-12-07T13:14:57;8.40;70.30
27671;DHT22;15077;49.704;9.908;2022-12-07T13:20:05;8.40;70.60
27671;DHT22;15077;49.704;9.908;2022-12-07T13:28:23;8.20;70.70
27671;DHT22;15077;49.704;9.908;2022-12-07T13:34:37;8.20;71.00
27671;DHT22;15077;49.704;9.908;2022-12-07T13:37:10;8.20;71.00
27671;DHT22;15077;49.704;9.908;2022-12-07T13:39:49;8.10;71.10
27671;DHT22;15077;49.704;9.908;2022-12-07T13:42:34;8.10;71.10
27671;DHT22;15077;49.704;9.908;2022-12-07T13:45:21;8.10;71.10
27671;DHT22;15077;49.704;9.908;2022-12-07T13:48:22;8.10;71.00
27671;DHT22;15077;49.704;9.908;2022-12-07T13:50:54;8.10;70.90
27671;DHT22;15077;49.704;9.908;2022-12-07T13:53:21;8.10;70.90
27671;DHT22;15077;49.704;9.908;2022-12-07T13:55:47;8.00;70.80
27671;DHT22;15077;49.704;9.908;2022-12-07T13:58:14;8.00;70.80
27671;DHT22;15077;49.704;9.908;2022-12-07T14:00:41;7.90;70.80
27671;DHT22;15077;49.704;9.908;2022-12-07T14:05:43;7.90;70.90
27671;DHT22;15077;49.704;9.908;2022-12-07T14:10:39;7.80;70.70
27671;DHT22;15077;49.704;9.908;2022-12-07T14:16:03;7.80;70.60
27671;DHT22;15077;49.704;9.908;2022-12-07T14:18:43;7.70;70.50
27671;DHT22;15077;49.704;9.908;2022-12-07T14:23:35;7.60;70.60
27671;DHT22;15077;49.704;9.908;2022-12-07T14:26:12;7.60;70.70
27671;DHT22;15077;49.704;9.908;2022-12-07T14:28:41;7.60;70.60
27671;DHT22;15077;49.704;9.908;2022-12-07T14:31:17;7.50;70.70
27671;DHT22;15077;49.704;9.908;2022-12-07T14:33:46;7.50;70.80
27671;DHT22;15077;49.704;9.908;2022-12-07T14:36:13;7.50;70.90
27671;DHT22;15077;49.704;9.908;2022-12-07T14:38:40;7.50;70.90
27671;DHT22;15077;49.704;9.908;2022-12-07T14:41:15;7.40;70.80
27671;DHT22;15077;49.704;9.908;2022-12-07T14:44:02;7.40;70.80
27671;DHT22;15077;49.704;9.908;2022-12-07T14:46:42;7.40;70.90
27671;DHT22;15077;49.704;9.908;2022-12-07T14:49:07;7.30;70.80
27671;DHT22;15077;49.704;9.908;2022-12-07T14:51:36;7.30;70.90
27671;DHT22;15077;49.704;9.908;2022-12-07T14:54:06;7.20;70.90
27671;DHT22;15077;49.704;9.908;2022-12-07T14:56:36;7.20;70.90
27671;DHT22;15077;49.704;9.908;2022-12-07T14:59:02;7.20;71.00
27671;DHT22;15077;49.704;9.908;2022-12-07T15:01:28;7.20;70.80
27671;DHT22;15077;49.704;9.908;2022-12-07T15:03:53;7.20;70.90
27671;DHT22;15077;49.704;9.908;2022-12-07T15:06:19;7.10;70.90
27671;DHT22;15077;49.704;9.908;2022-12-07T15:08:45;7.10;70.90
27671;DHT22;15077;49.704;9.908;2022-12-07T15:11:15;7.00;70.90
27671;DHT22;15077;49.704;9.908;2022-12-07T15:13:42;7.00;70.90
27671;DHT22;15077;49.704;9.908;2022-12-07T15:16:27;7.00;70.80
27671;DHT22;15077;49.704;9.908;2022-12-07T15:18:52;6.90;70.80
27671;DHT22;15077;49.704;9.908;2022-12-07T15:21:18;6.90;70.80
27671;DHT22;15077;49.704;9.908;2022-12-07T15:23:46;6.90;70.80
27671;DHT22;15077;49.704;9.908;2022-12-07T15:26:12;6.80;70.80
27671;DHT22;15077;49.704;9.908;2022-12-07T15:28:39;6.80;70.80
27671;DHT22;15077;49.704;9.908;2022-12-07T15:31:12;6.80;70.80
27671;DHT22;15077;49.704;9.908;2022-12-07T15:33:38;6.70;70.80
27671;DHT22;15077;49.704;9.908;2022-12-07T15:36:04;6.70;70.90
27671;DHT22;15077;49.704;9.908;2022-12-07T15:38:30;6.60;70.80
27671;DHT22;15077;49.704;9.908;2022-12-07T15:40:56;6.60;70.90
27671;DHT22;15077;49.704;9.908;2022-12-07T15:43:22;6.60;71.00
27671;DHT22;15077;49.704;9.908;2022-12-07T15:46:06;6.60;71.00
27671;DHT22;15077;49.704;9.908;2022-12-07T15:48:32;6.50;71.10
27671;DHT22;15077;49.704;9.908;2022-12-07T15:51:08;6.50;71.20
27671;DHT22;15077;49.704;9.908;2022-12-07T15:53:35;6.50;71.30
27671;DHT22;15077;49.704;9.908;2022-12-07T15:56:01;6.50;71.40
27671;DHT22;15077;49.704;9.908;2022-12-07T15:58:31;6.50;71.50
27671;DHT22;15077;49.704;9.908;2022-12-07T16:00:57;6.50;71.60
27671;DHT22;15077;49.704;9.908;2022-12-07T16:03:22;6.50;71.70
27671;DHT22;15077;49.704;9.908;2022-12-07T16:05:49;6.50;71.80
27671;DHT22;15077;49.704;9.908;2022-12-07T16:08:16;6.50;71.90
27671;DHT22;15077;49.704;9.908;2022-12-07T16:10:42;6.50;71.90
27671;DHT22;15077;49.704;9.908;2022-12-07T16:13:09;6.50;72.00
27671;DHT22;15077;49.704;9.908;2022-12-07T16:15:39;6.50;72.10
27671;DHT22;15077;49.704;9.908;2022-12-07T16:18:08;6.50;72.10
27671;DHT22;15077;49.704;9.908;2022-12-07T16:20:34;6.60;72.30
27671;DHT22;15077;49.704;9.908;2022-12-07T16:23:00;6.60;72.10
27671;DHT22;15077;49.704;9.908;2022-12-07T16:25:27;6.60;72.10
27671;DHT22;15077;49.704;9.908;2022-12-07T16:27:52;6.60;72.10
27671;DHT22;15077;49.704;9.908;2022-12-07T16:30:18;6.60;72.10
27671;DHT22;15077;49.704;9.908;2022-12-07T16:32:44;6.60;72.10
27671;DHT22;15077;49.704;9.908;2022-12-07T16:35:11;6.60;72.70
27671;DHT22;15077;49.704;9.908;2022-12-07T16:37:37;6.70;72.20
27671;DHT22;15077;49.704;9.908;2022-12-07T16:40:04;6.70;72.20
27671;DHT22;15077;49.704;9.908;2022-12-07T16:42:34;6.70;72.30
27671;DHT22;15077;49.704;9.908;2022-12-07T16:45:01;6.70;72.30
27671;DHT22;15077;49.704;9.908;2022-12-07T16:47:28;6.70;72.40
27671;DHT22;15077;49.704;9.908;2022-12-07T16:49:54;6.80;72.30
27671;DHT22;15077;49.704;9.908;2022-12-07T16:52:20;6.80;72.30
27671;DHT22;15077;49.704;9.908;2022-12-07T16:54:47;6.80;72.20
27671;DHT22;15077;49.704;9.908;2022-12-07T16:57:15;6.80;72.10
27671;DHT22;15077;49.704;9.908;2022-12-07T16:59:41;6.80;72.00
27671;DHT22;15077;49.704;9.908;2022-12-07T17:02:10;6.80;72.60
27671;DHT22;15077;49.704;9.908;2022-12-07T17:04:37;6.80;71.90
27671;DHT22;15077;49.704;9.908;2022-12-07T17:07:08;6.80;71.90
27671;DHT22;15077;49.704;9.908;2022-12-07T17:09:34;6.80;71.90
27671;DHT22;15077;49.704;9.908;2022-12-07T17:12:00;6.80;71.80
27671;DHT22;15077;49.704;9.908;2022-12-07T17:14:26;6.80;71.80
27671;DHT22;15077;49.704;9.908;2022-12-07T17:17:10;6.80;71.80
27671;DHT22;15077;49.704;9.908;2022-12-07T17:19:36;6.80;71.80
27671;DHT22;15077;49.704;9.908;2022-12-07T17:22:02;6.80;71.90
27671;DHT22;15077;49.704;9.908;2022-12-07T17:24:28;6.80;72.00
27671;DHT22;15077;49.704;9.908;2022-12-07T17:26:54;6.70;71.90
27671;DHT22;15077;49.704;9.908;2022-12-07T17:29:20;6.70;72.00
27671;DHT22;15077;49.704;9.908;2022-12-07T17:31:46;6.70;72.00
27671;DHT22;15077;49.704;9.908;2022-12-07T17:34:14;6.70;72.00
27671;DHT22;15077;49.704;9.908;2022-12-07T17:36:40;6.70;72.10
27671;DHT22;15077;49.704;9.908;2022-12-07T17:39:11;6.70;72.10
27671;DHT22;15077;49.704;9.908;2022-12-07T17:41:39;6.70;72.20
27671;DHT22;15077;49.704;9.908;2022-12-07T17:44:24;6.70;72.20
27671;DHT22;15077;49.704;9.908;2022-12-07T17:46:52;6.60;72.10
27671;DHT22;15077;49.704;9.908;2022-12-07T17:49:24;6.60;72.10
27671;DHT22;15077;49.704;9.908;2022-12-07T17:51:50;6.60;72.10
27671;DHT22;15077;49.704;9.908;2022-12-07T17:54:35;6.60;72.10
27671;DHT22;15077;49.704;9.908;2022-12-07T17:57:01;6.60;72.20
27671;DHT22;15077;49.704;9.908;2022-12-07T17:59:27;6.60;72.20
27671;DHT22;15077;49.704;9.908;2022-12-07T18:01:53;6.60;72.30